createdAt,value
2019-02-08T00:00:12.069Z,55.67
2019-02-08T00:02:44.587Z,48.03
2019-02-08T00:05:17.403Z,50.17
2019-02-08T00:07:50.153Z,48.23
2019-02-08T00:10:23.263Z,53.90
2019-02-08T00:12:55.898Z,50.70
2019-02-08T00:15:29.247Z,48.17
2019-02-08T00:18:01.780Z,53.80
2019-02-08T00:20:34.485Z,52.80
2019-02-08T00:23:07.330Z,52.47
2019-02-08T00:25:40.056Z,54.33
2019-02-08T00:28:12.633Z,51.30
2019-02-08T00:30:45.047Z,53.20
2019-02-08T00:33:17.707Z,55.63
2019-02-08T00:35:49.977Z,54.00
2019-02-08T00:38:22.682Z,53.37
2019-02-08T00:40:56.390Z,50.90
2019-02-08T00:43:28.731Z,56.13
2019-02-08T00:46:01.174Z,55.33
2019-02-08T00:48:33.683Z,53.53
2019-02-08T00:51:06.649Z,54.40
2019-02-08T00:53:38.967Z,52.57
2019-02-08T00:56:11.431Z,52.30
2019-02-08T00:58:43.827Z,56.27
2019-02-08T01:01:16.082Z,53.50
2019-02-08T01:03:49.100Z,51.57
2019-02-08T01:06:21.485Z,57.37
2019-02-08T01:08:53.940Z,49.30
2019-02-08T01:11:26.752Z,51.70
2019-02-08T01:13:59.582Z,51.00
2019-02-08T01:16:32.442Z,50.97
2019-02-08T01:19:05.309Z,55.00
2019-02-08T01:21:37.840Z,53.20
2019-02-08T01:24:10.480Z,55.90
2019-02-08T01:26:43.491Z,51.33
2019-02-08T01:29:16.308Z,52.13
2019-02-08T01:31:48.704Z,54.73
2019-02-08T01:34:21.170Z,56.63
2019-02-08T01:36:53.638Z,54.20
2019-02-08T01:39:26.098Z,54.47
2019-02-08T01:41:58.550Z,51.37
2019-02-08T01:44:30.853Z,52.63
2019-02-08T01:47:03.532Z,55.17
2019-02-08T01:49:36.394Z,54.57
2019-02-08T01:52:08.825Z,55.37
2019-02-08T01:54:41.464Z,52.97
2019-02-08T01:57:13.900Z,50.53
2019-02-08T01:59:46.317Z,52.03
2019-02-08T02:02:19.079Z,48.93
2019-02-08T02:04:51.458Z,48.20
2019-02-08T02:07:24.227Z,48.97
2019-02-08T02:09:56.863Z,47.43
2019-02-08T02:12:29.200Z,50.97
2019-02-08T02:15:01.737Z,50.77
2019-02-08T02:17:34.211Z,50.07
2019-02-08T02:20:08.598Z,50.47
2019-02-08T02:22:42.336Z,44.73
2019-02-08T02:25:16.764Z,52.37
2019-02-08T02:27:49.276Z,46.30
2019-02-08T02:30:26.055Z,50.67
2019-02-08T02:32:58.625Z,48.20
2019-02-08T02:35:31.484Z,53.07
2019-02-08T02:38:04.174Z,47.93
2019-02-08T02:40:36.972Z,52.93
2019-02-08T02:43:09.802Z,50.60
2019-02-08T02:45:42.941Z,45.07
2019-02-08T02:48:16.216Z,45.60
2019-02-08T02:50:48.567Z,49.90
2019-02-08T02:53:21.224Z,53.10
2019-02-08T02:55:53.669Z,47.20
2019-02-08T02:58:26.229Z,50.77
2019-02-08T03:00:59.241Z,50.53
2019-02-08T03:03:31.832Z,49.33
2019-02-08T03:06:04.448Z,53.07
2019-02-08T03:08:36.988Z,51.73
2019-02-08T03:11:09.541Z,51.10
2019-02-08T03:13:42.001Z,47.53
2019-02-08T03:16:14.472Z,52.40
2019-02-08T03:18:47.074Z,50.13
2019-02-08T03:21:19.597Z,49.47
2019-02-08T03:23:52.394Z,51.40
2019-02-08T03:26:24.710Z,52.53
2019-02-08T03:28:57.524Z,53.63
2019-02-08T03:31:30.089Z,50.90
2019-02-08T03:34:02.721Z,51.30
2019-02-08T03:36:35.619Z,47.57
2019-02-08T03:39:10.816Z,53.77
2019-02-08T03:41:43.218Z,50.13
2019-02-08T03:44:15.856Z,54.47
2019-02-08T03:46:48.360Z,47.67
2019-02-08T03:49:20.730Z,56.40
2019-02-08T03:51:53.222Z,48.63
2019-02-08T03:54:25.641Z,56.40
2019-02-08T03:56:57.978Z,52.90
2019-02-08T03:59:30.764Z,53.80
2019-02-08T04:02:03.618Z,54.60
2019-02-08T04:04:36.463Z,54.43
2019-02-08T04:07:09.786Z,52.70
2019-02-08T04:09:42.294Z,55.33
2019-02-08T04:12:15.050Z,52.20
2019-02-08T04:14:47.550Z,51.27
2019-02-08T04:17:20.313Z,56.40
2019-02-08T04:19:52.899Z,53.50
2019-02-08T04:22:25.439Z,55.33
2019-02-08T04:24:58.142Z,54.33
2019-02-08T04:27:30.651Z,51.77
2019-02-08T04:30:03.343Z,54.87
2019-02-08T04:32:35.796Z,59.70
2019-02-08T04:35:08.389Z,54.27
2019-02-08T04:37:40.939Z,59.27
2019-02-08T04:40:14.224Z,60.17
2019-02-08T04:42:46.986Z,58.03
2019-02-08T04:45:20.104Z,60.10
2019-02-08T04:47:52.537Z,54.77
2019-02-08T04:50:25.536Z,56.37
2019-02-08T04:52:59.015Z,63.10
2019-02-08T04:55:31.497Z,100.20
2019-02-08T04:58:05.524Z,70.20
2019-02-08T05:00:38.542Z,59.63
2019-02-08T05:03:11.282Z,58.33
2019-02-08T05:05:43.963Z,70.30
2019-02-08T05:08:16.440Z,56.73
2019-02-08T05:10:49.585Z,56.30
2019-02-08T05:13:22.032Z,54.20
2019-02-08T05:15:54.428Z,60.07
2019-02-08T05:18:26.988Z,59.10
2019-02-08T05:20:59.780Z,57.27
2019-02-08T05:23:32.253Z,56.10
2019-02-08T05:26:04.985Z,58.37
2019-02-08T05:28:37.558Z,58.23
2019-02-08T05:31:10.178Z,59.43
2019-02-08T05:33:42.565Z,64.03
2019-02-08T05:36:15.008Z,61.93
2019-02-08T05:38:47.547Z,58.73
2019-02-08T05:41:20.355Z,53.37
2019-02-08T05:43:52.920Z,61.17
2019-02-08T05:46:25.434Z,58.80
2019-02-08T05:48:57.930Z,59.53
2019-02-08T05:51:30.318Z,72.03
2019-02-08T05:54:02.862Z,66.53
2019-02-08T05:56:35.497Z,62.93
2019-02-08T05:59:08.485Z,61.37
2019-02-08T06:01:41.034Z,59.70
2019-02-08T06:04:13.742Z,67.83
2019-02-08T06:06:46.140Z,67.50
2019-02-08T06:09:18.517Z,64.33
2019-02-08T06:11:51.231Z,62.20
2019-02-08T06:14:23.645Z,66.27
2019-02-08T06:16:55.938Z,66.13
2019-02-08T06:19:28.440Z,56.43
2019-02-08T06:22:00.899Z,63.33
2019-02-08T06:24:33.297Z,57.67
2019-02-08T06:27:05.892Z,63.17
2019-02-08T06:29:38.538Z,88.10
2019-02-08T06:32:11.066Z,70.47
2019-02-08T06:34:43.614Z,67.00
2019-02-08T06:37:17.082Z,62.40
2019-02-08T06:39:49.452Z,64.93
2019-02-08T06:42:21.918Z,67.03
2019-02-08T06:44:54.609Z,66.67
2019-02-08T06:47:27.304Z,62.97
2019-02-08T06:50:00.049Z,173.13
2019-02-08T06:52:32.655Z,102.90
2019-02-08T06:55:10.649Z,71.63
2019-02-08T06:57:47.656Z,73.37
2019-02-08T07:00:35.115Z,64.57
2019-02-08T07:03:27.596Z,62.70
2019-02-08T07:06:25.242Z,63.20
2019-02-08T07:09:18.944Z,65.20
2019-02-08T07:12:08.526Z,63.47
2019-02-08T07:15:14.660Z,64.67
2019-02-08T07:18:12.554Z,61.57
2019-02-08T07:21:03.681Z,68.47
2019-02-08T07:24:05.606Z,68.00
2019-02-08T07:27:00.133Z,60.03
2019-02-08T07:29:50.955Z,60.57
2019-02-08T07:32:42.541Z,63.07
2019-02-08T07:35:30.782Z,64.60
2019-02-08T07:38:13.413Z,63.97
2019-02-08T07:41:22.879Z,63.83
2019-02-08T07:44:13.197Z,67.47
2019-02-08T07:47:12.132Z,67.03
2019-02-08T07:50:06.755Z,64.67
2019-02-08T07:53:05.784Z,62.73
2019-02-08T07:56:05.007Z,60.90
2019-02-08T07:58:56.200Z,61.60
2019-02-08T08:01:46.774Z,69.73
2019-02-08T08:04:38.230Z,69.67
2019-02-08T08:07:37.025Z,68.97
2019-02-08T08:10:30.351Z,65.93
2019-02-08T08:13:20.449Z,60.90
2019-02-08T08:16:15.291Z,62.93
2019-02-08T08:19:07.257Z,61.13
2019-02-08T08:21:57.461Z,61.47
2019-02-08T08:24:44.759Z,61.10
2019-02-08T08:27:33.807Z,60.20
2019-02-08T08:30:35.907Z,60.93
2019-02-08T08:33:27.277Z,62.30
2019-02-08T08:36:49.835Z,61.53
2019-02-08T08:39:58.987Z,60.00
2019-02-08T08:43:32.569Z,70.17
2019-02-08T08:47:10.902Z,67.60
2019-02-08T08:50:44.859Z,65.77
2019-02-08T08:54:19.849Z,64.40
2019-02-08T08:57:24.085Z,69.07
2019-02-08T09:00:58.890Z,66.40
2019-02-08T09:04:35.188Z,63.53
2019-02-08T09:07:57.904Z,62.43
2019-02-08T09:11:27.359Z,59.50
2019-02-08T09:15:00.962Z,65.20
2019-02-08T09:18:48.191Z,58.10
2019-02-08T09:22:16.058Z,58.30
2019-02-08T09:25:41.807Z,56.70
2019-02-08T09:28:58.013Z,60.20
2019-02-08T09:32:46.351Z,60.40
2019-02-08T09:36:19.001Z,61.80
2019-02-08T09:39:37.944Z,58.57
2019-02-08T09:43:12.512Z,56.07
2019-02-08T09:46:32.187Z,63.70
2019-02-08T09:50:01.735Z,68.43
2019-02-08T09:53:30.717Z,64.53
2019-02-08T09:57:29.902Z,63.67
2019-02-08T10:01:13.973Z,69.40
2019-02-08T10:04:41.272Z,63.97
2019-02-08T10:08:40.598Z,59.37
2019-02-08T10:12:24.461Z,60.00
2019-02-08T10:16:09.258Z,50.83
2019-02-08T10:19:35.905Z,49.23
2019-02-08T10:23:29.559Z,49.90
2019-02-08T10:27:19.870Z,42.17
2019-02-08T10:30:37.510Z,40.07
2019-02-08T10:34:03.647Z,38.50
2019-02-08T10:37:51.230Z,35.33
2019-02-08T10:41:40.148Z,39.73
2019-02-08T10:45:11.845Z,35.70
2019-02-08T10:49:03.739Z,36.40
2019-02-08T10:52:35.546Z,34.97
2019-02-08T10:56:14.616Z,37.17
2019-02-08T10:59:47.035Z,31.20
2019-02-08T11:03:23.677Z,32.03
2019-02-08T11:06:43.399Z,26.90
2019-02-08T11:10:13.917Z,26.67
2019-02-08T11:13:49.082Z,27.40
2019-02-08T11:17:13.235Z,24.30
2019-02-08T11:19:42.467Z,24.50
2019-02-08T11:22:15.330Z,25.20
2019-02-08T11:24:47.836Z,28.17
2019-02-08T11:27:20.526Z,27.40
2019-02-08T11:29:53.261Z,25.63
2019-02-08T11:32:33.500Z,24.80
2019-02-08T11:35:00.329Z,24.97
2019-02-08T11:37:32.784Z,24.37
2019-02-08T11:40:08.514Z,25.17
2019-02-08T11:42:41.195Z,24.87
2019-02-08T11:45:14.677Z,26.30
2019-02-08T11:47:47.250Z,23.30
2019-02-08T11:50:21.379Z,23.50
2019-02-08T11:52:53.902Z,21.60
2019-02-08T11:55:26.496Z,19.50
2019-02-08T11:57:59.054Z,16.07
2019-02-08T12:00:38.172Z,15.70
2019-02-08T12:03:10.604Z,20.97
2019-02-08T12:05:43.272Z,16.00
2019-02-08T12:08:15.848Z,16.97
2019-02-08T12:10:48.576Z,14.30
2019-02-08T12:13:21.138Z,14.90
2019-02-08T12:15:53.841Z,16.57
2019-02-08T12:18:26.187Z,17.63
2019-02-08T12:20:59.747Z,18.63
2019-02-08T12:23:32.257Z,19.93
2019-02-08T12:26:05.069Z,19.13
2019-02-08T12:28:37.480Z,17.63
2019-02-08T12:31:10.079Z,17.23
2019-02-08T12:33:42.714Z,17.30
2019-02-08T12:36:15.323Z,14.13
2019-02-08T12:38:47.806Z,18.27
2019-02-08T12:41:20.384Z,20.87
2019-02-08T12:43:52.751Z,16.47
2019-02-08T12:46:25.365Z,16.60
2019-02-08T12:48:58.053Z,15.80
2019-02-08T12:51:30.396Z,16.70
2019-02-08T12:54:02.763Z,14.67
2019-02-08T12:56:35.247Z,16.73
2019-02-08T12:59:08.185Z,21.07
2019-02-08T13:01:40.589Z,21.77
2019-02-08T13:04:12.941Z,19.90
2019-02-08T13:06:45.476Z,17.93
2019-02-08T13:09:17.854Z,18.40
2019-02-08T13:11:50.374Z,19.63
2019-02-08T13:14:22.942Z,22.93
2019-02-08T13:16:55.479Z,19.20
2019-02-08T13:19:28.413Z,22.10
2019-02-08T13:22:01.062Z,21.27
2019-02-08T13:24:34.121Z,21.33
2019-02-08T13:27:06.575Z,21.80
2019-02-08T13:29:38.922Z,20.87
2019-02-08T13:32:11.723Z,21.47
2019-02-08T13:34:44.598Z,21.83
2019-02-08T13:37:17.143Z,24.40
2019-02-08T13:39:49.581Z,25.13
2019-02-08T13:42:23.918Z,26.50
2019-02-08T13:44:56.647Z,24.23
2019-02-08T13:47:29.425Z,22.57
2019-02-08T13:50:02.023Z,27.43
2019-02-08T13:52:34.588Z,18.23
2019-02-08T13:55:08.379Z,18.87
2019-02-08T13:57:40.885Z,18.93
2019-02-08T14:00:21.567Z,18.53
2019-02-08T14:02:54.381Z,18.10
2019-02-08T14:05:27.134Z,20.67
2019-02-08T14:08:10.862Z,18.37
2019-02-08T14:10:54.309Z,18.63
2019-02-08T14:13:26.963Z,20.07
2019-02-08T14:15:59.496Z,17.13
2019-02-08T14:18:32.033Z,20.17
2019-02-08T14:21:05.362Z,16.93
2019-02-08T14:23:38.068Z,20.30
2019-02-08T14:26:10.610Z,43.40
2019-02-08T14:28:42.990Z,48.10
2019-02-08T14:31:15.403Z,47.27
2019-02-08T14:33:47.876Z,36.33
2019-02-08T14:36:20.369Z,47.30
2019-02-08T14:38:52.930Z,40.33
2019-02-08T14:41:25.473Z,39.17
2019-02-08T14:43:57.900Z,36.20
2019-02-08T14:46:30.560Z,37.27
2019-02-08T14:49:03.543Z,38.40
2019-02-08T14:51:36.159Z,37.37
2019-02-08T14:54:09.251Z,71.10
2019-02-08T14:56:41.601Z,39.27
2019-02-08T14:59:14.496Z,56.37
2019-02-08T15:01:47.351Z,42.77
2019-02-08T15:04:19.807Z,40.37
2019-02-08T15:06:52.212Z,40.23
2019-02-08T15:09:25.476Z,40.87
2019-02-08T15:11:58.126Z,35.00
2019-02-08T15:14:30.594Z,40.00
2019-02-08T15:17:03.004Z,40.17
2019-02-08T15:19:35.751Z,43.40
2019-02-08T15:22:08.568Z,41.03
2019-02-08T15:24:41.185Z,43.90
2019-02-08T15:27:13.676Z,38.73
2019-02-08T15:29:46.493Z,37.57
2019-02-08T15:32:19.051Z,41.27
2019-02-08T15:34:51.430Z,69.93
2019-02-08T15:37:24.051Z,48.77
2019-02-08T15:39:56.628Z,52.70
2019-02-08T15:42:29.407Z,43.57
2019-02-08T15:45:01.972Z,41.93
2019-02-08T15:47:34.569Z,43.37
2019-02-08T15:50:08.162Z,48.47
2019-02-08T15:52:40.864Z,47.40
2019-02-08T15:55:18.657Z,48.53
2019-02-08T15:57:51.276Z,50.47
2019-02-08T16:00:27.315Z,54.20
2019-02-08T16:03:00.610Z,62.23
2019-02-08T16:05:33.521Z,56.57
2019-02-08T16:08:06.257Z,51.80
2019-02-08T16:10:39.017Z,55.70
2019-02-08T16:13:11.622Z,53.50
2019-02-08T16:15:44.913Z,56.97
2019-02-08T16:18:17.741Z,50.97
2019-02-08T16:20:50.350Z,52.93
2019-02-08T16:23:22.778Z,53.20
2019-02-08T16:25:56.996Z,53.70
2019-02-08T16:28:29.586Z,52.93
2019-02-08T16:31:02.148Z,58.50
2019-02-08T16:33:34.716Z,55.93
2019-02-08T16:36:08.518Z,59.87
2019-02-08T16:38:41.155Z,59.73
2019-02-08T16:41:14.165Z,58.37
2019-02-08T16:43:46.642Z,66.00
2019-02-08T16:46:19.172Z,65.80
2019-02-08T16:48:51.495Z,60.23
2019-02-08T16:51:24.243Z,55.53
2019-02-08T16:53:56.693Z,59.33
2019-02-08T16:56:29.193Z,62.43
2019-02-08T16:59:01.919Z,58.37
2019-02-08T17:01:34.477Z,66.83
2019-02-08T17:04:07.185Z,65.67
2019-02-08T17:06:40.310Z,66.30
2019-02-08T17:09:15.472Z,66.37
2019-02-08T17:11:49.157Z,59.40
2019-02-08T17:14:21.773Z,63.63
2019-02-08T17:16:54.886Z,68.10
2019-02-08T17:19:27.641Z,64.60
2019-02-08T17:22:00.792Z,189.33
2019-02-08T17:24:33.462Z,96.53
2019-02-08T17:27:06.142Z,75.03
2019-02-08T17:29:38.679Z,65.50
2019-02-08T17:32:11.171Z,71.57
2019-02-08T17:34:43.692Z,66.80
2019-02-08T17:37:16.081Z,71.73
2019-02-08T17:39:48.623Z,62.10
2019-02-08T17:42:21.407Z,72.80
2019-02-08T17:44:54.156Z,62.70
2019-02-08T17:47:26.489Z,62.57
2019-02-08T17:49:59.186Z,64.63
2019-02-08T17:52:31.845Z,65.87
2019-02-08T17:55:05.928Z,64.40
2019-02-08T17:57:38.424Z,62.87
2019-02-08T18:00:31.541Z,61.10
2019-02-08T18:03:04.194Z,63.73
2019-02-08T18:05:36.687Z,60.83
2019-02-08T18:08:09.657Z,67.33
2019-02-08T18:10:42.639Z,63.77
2019-02-08T18:13:16.744Z,61.27
2019-02-08T18:15:49.840Z,63.60
2019-02-08T18:18:24.960Z,67.13
2019-02-08T18:21:02.190Z,93.97
2019-02-08T18:23:34.890Z,70.10
2019-02-08T18:26:07.621Z,62.53
2019-02-08T18:28:40.493Z,56.87
2019-02-08T18:31:12.945Z,57.17
2019-02-08T18:33:46.852Z,57.27
2019-02-08T18:36:19.372Z,55.47
2019-02-08T18:38:51.863Z,58.77
2019-02-08T18:41:24.418Z,55.17
2019-02-08T18:43:57.034Z,57.30
2019-02-08T18:46:30.000Z,54.47
2019-02-08T18:49:02.568Z,52.20
2019-02-08T18:51:35.571Z,58.50
2019-02-08T18:54:08.294Z,60.10
2019-02-08T18:56:41.063Z,55.27
2019-02-08T18:59:13.608Z,53.83
2019-02-08T19:01:46.091Z,58.00
2019-02-08T19:04:18.617Z,63.30
2019-02-08T19:06:51.416Z,57.00
2019-02-08T19:09:24.266Z,54.43
2019-02-08T19:11:56.850Z,58.30
2019-02-08T19:14:29.609Z,65.97
2019-02-08T19:17:02.382Z,74.73
2019-02-08T19:19:35.073Z,112.80
2019-02-08T19:22:07.719Z,67.17
2019-02-08T19:24:40.311Z,66.27
2019-02-08T19:27:12.991Z,64.57
2019-02-08T19:29:47.060Z,61.83
2019-02-08T19:32:19.640Z,63.60
2019-02-08T19:34:52.230Z,68.70
2019-02-08T19:37:24.888Z,65.03
2019-02-08T19:39:57.553Z,61.40
2019-02-08T19:42:30.504Z,63.07
2019-02-08T19:45:03.523Z,75.00
2019-02-08T19:47:36.360Z,67.83
2019-02-08T19:50:11.396Z,57.93
2019-02-08T19:52:43.957Z,66.50
2019-02-08T19:55:16.573Z,70.37
2019-02-08T19:57:49.579Z,61.30
2019-02-08T20:00:25.156Z,62.43
2019-02-08T20:02:57.982Z,64.33
2019-02-08T20:05:30.731Z,67.53
2019-02-08T20:08:03.225Z,59.20
2019-02-08T20:10:38.186Z,61.23
2019-02-08T20:13:10.838Z,56.60
2019-02-08T20:15:43.425Z,54.83
2019-02-08T20:18:16.619Z,56.17
2019-02-08T20:20:49.251Z,49.80
2019-02-08T20:23:21.702Z,57.13
2019-02-08T20:25:54.577Z,63.27
2019-02-08T20:28:28.247Z,62.70
2019-02-08T20:31:00.970Z,54.43
2019-02-08T20:33:33.635Z,54.83
2019-02-08T20:36:06.505Z,66.43
2019-02-08T20:38:39.003Z,63.33
2019-02-08T20:41:11.459Z,55.17
2019-02-08T20:43:56.260Z,76.93
2019-02-08T20:46:30.553Z,105.63
2019-02-08T20:49:03.459Z,62.47
2019-02-08T20:51:36.033Z,59.90
2019-02-08T20:54:08.679Z,57.37
2019-02-08T20:56:41.167Z,66.37
2019-02-08T20:59:13.850Z,78.60
2019-02-08T21:01:46.462Z,71.63
2019-02-08T21:04:19.727Z,72.53
2019-02-08T21:06:52.432Z,72.23
2019-02-08T21:09:25.635Z,71.03
2019-02-08T21:11:58.334Z,65.33
2019-02-08T21:14:30.760Z,59.37
2019-02-08T21:17:03.263Z,66.27
2019-02-08T21:19:36.298Z,61.80
2019-02-08T21:22:08.692Z,58.47
2019-02-08T21:24:41.192Z,57.93
2019-02-08T21:27:13.741Z,56.83
2019-02-08T21:29:46.461Z,60.70
2019-02-08T21:32:19.253Z,63.77
2019-02-08T21:34:52.271Z,63.83
2019-02-08T21:37:24.847Z,71.93
2019-02-08T21:39:57.976Z,82.60
2019-02-08T21:42:30.709Z,81.47
2019-02-08T21:45:03.254Z,84.47
2019-02-08T21:47:35.820Z,79.03
2019-02-08T21:50:12.055Z,72.97
2019-02-08T21:52:44.737Z,70.33
2019-02-08T21:55:18.388Z,67.57
2019-02-08T21:57:52.001Z,65.97
2019-02-08T22:00:35.450Z,97.17
2019-02-08T22:03:11.688Z,88.50
2019-02-08T22:05:54.933Z,68.40
2019-02-08T22:08:27.593Z,67.60
2019-02-08T22:11:00.310Z,57.60
2019-02-08T22:13:33.017Z,64.30
2019-02-08T22:16:06.755Z,61.43
2019-02-08T22:18:39.274Z,62.13
2019-02-08T22:21:11.772Z,62.50
2019-02-08T22:23:44.492Z,61.30
2019-02-08T22:26:16.969Z,64.80
2019-02-08T22:28:50.183Z,62.53
2019-02-08T22:31:22.792Z,65.80
2019-02-08T22:33:55.314Z,65.23
2019-02-08T22:36:27.852Z,68.80
2019-02-08T22:39:00.224Z,61.07
2019-02-08T22:41:32.663Z,63.53
2019-02-08T22:44:05.286Z,72.50
2019-02-08T22:46:37.949Z,70.17
2019-02-08T22:49:10.557Z,65.90
2019-02-08T22:51:42.988Z,77.30
2019-02-08T22:54:15.504Z,67.77
2019-02-08T22:56:48.268Z,76.47
2019-02-08T22:59:22.200Z,71.33
2019-02-08T23:01:55.959Z,74.93
2019-02-08T23:04:28.508Z,70.20
2019-02-08T23:07:00.875Z,74.57
2019-02-08T23:09:34.189Z,71.37
2019-02-08T23:12:07.961Z,77.20
2019-02-08T23:14:40.626Z,77.97
2019-02-08T23:17:13.689Z,74.87
2019-02-08T23:19:46.353Z,72.50
2019-02-08T23:22:19.025Z,75.67
2019-02-08T23:24:51.575Z,74.67
2019-02-08T23:27:23.946Z,77.97
2019-02-08T23:29:56.637Z,80.50
2019-02-08T23:32:29.069Z,76.90
2019-02-08T23:35:01.396Z,71.27
2019-02-08T23:37:33.937Z,72.40
2019-02-08T23:40:07.892Z,75.00
2019-02-08T23:42:40.400Z,72.00
2019-02-08T23:45:13.586Z,83.57
2019-02-08T23:47:46.315Z,86.37
2019-02-08T23:50:18.812Z,78.10
2019-02-08T23:52:51.524Z,81.70
2019-02-08T23:55:24.637Z,79.27
2019-02-08T23:57:57.149Z,75.10
